sensor_id;sensor_type;location;lat;lon;timestamp;pressure;altitude;pressure_sealevel;temperature;humidity
56604;BME280;42486;47.478;19.036;2023-04-22T00:00:15;100022.34;;;10.15;86.67
56604;BME280;42486;47.478;19.036;2023-04-22T00:03:20;100026.28;;;10.09;87.02
56604;BME280;42486;47.478;19.036;2023-04-22T00:06:25;100028.06;;;9.98;88.18
56604;BME280;42486;47.478;19.036;2023-04-22T00:09:31;100022.84;;;9.98;88.93
56604;BME280;42486;47.478;19.036;2023-04-22T00:12:34;100026.03;;;9.90;90.04
56604;BME280;42486;47.478;19.036;2023-04-22T00:15:37;100023.75;;;9.85;90.80
56604;BME280;42486;47.478;19.036;2023-04-22T00:18:41;100022.09;;;9.84;91.42
56604;BME280;42486;47.478;19.036;2023-04-22T00:21:44;100029.94;;;9.84;92.37
56604;BME280;42486;47.478;19.036;2023-04-22T00:24:47;100010.22;;;9.80;91.43
56604;BME280;42486;47.478;19.036;2023-04-22T00:27:50;100016.16;;;9.82;91.08
56604;BME280;42486;47.478;19.036;2023-04-22T00:30:53;100021.97;;;9.97;88.41
56604;BME280;42486;47.478;19.036;2023-04-22T00:34:00;100022.47;;;10.02;87.59
56604;BME280;42486;47.478;19.036;2023-04-22T00:37:06;100028.06;;;10.09;86.47
56604;BME280;42486;47.478;19.036;2023-04-22T00:40:09;100025.19;;;10.12;85.39
56604;BME280;42486;47.478;19.036;2023-04-22T00:43:13;100019.25;;;10.10;86.86
56604;BME280;42486;47.478;19.036;2023-04-22T00:46:20;100016.31;;;10.03;87.19
56604;BME280;42486;47.478;19.036;2023-04-22T00:49:23;100016.31;;;10.03;87.66
56604;BME280;42486;47.478;19.036;2023-04-22T00:52:28;100023.53;;;10.00;88.19
56604;BME280;42486;47.478;19.036;2023-04-22T00:55:30;100021.38;;;9.93;86.61
56604;BME280;42486;47.478;19.036;2023-04-22T00:58:36;100019.84;;;9.91;86.41
56604;BME280;42486;47.478;19.036;2023-04-22T01:01:38;100028.88;;;9.87;87.86
56604;BME280;42486;47.478;19.036;2023-04-22T01:04:42;100027.75;;;9.78;88.67
56604;BME280;42486;47.478;19.036;2023-04-22T01:07:46;100033.69;;;9.69;90.33
56604;BME280;42486;47.478;19.036;2023-04-22T01:10:48;100024.16;;;9.57;91.18
56604;BME280;42486;47.478;19.036;2023-04-22T01:13:52;100031.84;;;9.47;93.47
56604;BME280;42486;47.478;19.036;2023-04-22T01:16:56;100032.66;;;9.36;93.54
56604;BME280;42486;47.478;19.036;2023-04-22T01:20:00;100029.41;;;9.33;93.97
56604;BME280;42486;47.478;19.036;2023-04-22T01:23:16;100032.53;;;9.38;92.80
56604;BME280;42486;47.478;19.036;2023-04-22T01:26:21;100036.09;;;9.37;93.65
56604;BME280;42486;47.478;19.036;2023-04-22T01:29:24;100028.25;;;9.37;92.63
56604;BME280;42486;47.478;19.036;2023-04-22T01:32:27;100029.31;;;9.34;92.44
56604;BME280;42486;47.478;19.036;2023-04-22T01:35:32;100029.75;;;9.28;92.13
56604;BME280;42486;47.478;19.036;2023-04-22T01:38:38;100023.22;;;9.22;92.07
56604;BME280;42486;47.478;19.036;2023-04-22T01:41:43;100029.16;;;9.24;91.08
56604;BME280;42486;47.478;19.036;2023-04-22T01:44:47;100028.81;;;9.29;89.96
56604;BME280;42486;47.478;19.036;2023-04-22T01:47:50;100032.75;;;9.35;89.51
56604;BME280;42486;47.478;19.036;2023-04-22T01:50:53;100030.87;;;9.37;90.64
56604;BME280;42486;47.478;19.036;2023-04-22T01:53:56;100036.69;;;9.40;90.62
56604;BME280;42486;47.478;19.036;2023-04-22T01:57:05;100038.13;;;9.44;93.05
56604;BME280;42486;47.478;19.036;2023-04-22T02:00:10;100037.56;;;9.28;92.80
56604;BME280;42486;47.478;19.036;2023-04-22T02:03:13;100033.81;;;9.32;91.48
56604;BME280;42486;47.478;19.036;2023-04-22T02:06:16;100033.34;;;9.38;93.03
56604;BME280;42486;47.478;19.036;2023-04-22T02:09:20;100030.66;;;9.40;90.77
56604;BME280;42486;47.478;19.036;2023-04-22T02:12:23;100024.38;;;9.42;91.03
56604;BME280;42486;47.478;19.036;2023-04-22T02:15:26;100030.31;;;9.44;90.76
56604;BME280;42486;47.478;19.036;2023-04-22T02:18:30;100024.22;;;9.33;91.49
56604;BME280;42486;47.478;19.036;2023-04-22T02:21:33;100033.78;;;9.21;93.23
56604;BME280;42486;47.478;19.036;2023-04-22T02:24:36;100025.12;;;9.20;94.85
56604;BME280;42486;47.478;19.036;2023-04-22T02:27:39;100024.72;;;9.14;93.54
56604;BME280;42486;47.478;19.036;2023-04-22T02:30:42;100029.56;;;9.07;93.68
56604;BME280;42486;47.478;19.036;2023-04-22T02:33:45;100024.78;;;9.01;95.86
56604;BME280;42486;47.478;19.036;2023-04-22T02:36:48;100029.75;;;9.04;93.70
56604;BME280;42486;47.478;19.036;2023-04-22T02:39:51;100023.63;;;9.05;96.00
56604;BME280;42486;47.478;19.036;2023-04-22T02:42:55;100021.94;;;9.04;96.45
56604;BME280;42486;47.478;19.036;2023-04-22T02:45:58;100023.41;;;9.08;95.40
56604;BME280;42486;47.478;19.036;2023-04-22T02:49:01;100025.41;;;9.04;93.59
56604;BME280;42486;47.478;19.036;2023-04-22T02:52:04;100021.56;;;8.97;93.92
56604;BME280;42486;47.478;19.036;2023-04-22T02:55:07;100023.59;;;8.94;94.24
56604;BME280;42486;47.478;19.036;2023-04-22T02:58:10;100021.56;;;8.97;96.82
56604;BME280;42486;47.478;19.036;2023-04-22T03:01:13;100022.66;;;8.82;96.97
56604;BME280;42486;47.478;19.036;2023-04-22T03:04:16;100026.44;;;8.78;94.42
56604;BME280;42486;47.478;19.036;2023-04-22T03:07:19;100030.72;;;8.79;94.09
56604;BME280;42486;47.478;19.036;2023-04-22T03:10:22;100028.94;;;8.79;93.86
56604;BME280;42486;47.478;19.036;2023-04-22T03:13:26;100029.75;;;8.80;94.38
56604;BME280;42486;47.478;19.036;2023-04-22T03:16:29;100027.16;;;8.80;95.33
56604;BME280;42486;47.478;19.036;2023-04-22T03:19:33;100028.94;;;8.79;96.71
56604;BME280;42486;47.478;19.036;2023-04-22T03:22:38;100028.00;;;8.80;97.04
56604;BME280;42486;47.478;19.036;2023-04-22T03:25:41;100030.37;;;8.84;97.63
56604;BME280;42486;47.478;19.036;2023-04-22T03:28:45;100038.34;;;8.93;97.65
56604;BME280;42486;47.478;19.036;2023-04-22T03:31:48;100029.63;;;8.94;96.82
56604;BME280;42486;47.478;19.036;2023-04-22T03:34:51;100040.97;;;8.93;97.41
56604;BME280;42486;47.478;19.036;2023-04-22T03:37:54;100037.03;;;8.88;96.99
56604;BME280;42486;47.478;19.036;2023-04-22T03:40:58;100037.16;;;8.86;96.82
56604;BME280;42486;47.478;19.036;2023-04-22T03:44:01;100043.19;;;8.87;97.25
56604;BME280;42486;47.478;19.036;2023-04-22T03:47:04;100043.28;;;8.85;96.39
56604;BME280;42486;47.478;19.036;2023-04-22T03:50:08;100043.81;;;8.77;96.62
56604;BME280;42486;47.478;19.036;2023-04-22T03:53:12;100044.06;;;8.74;97.87
56604;BME280;42486;47.478;19.036;2023-04-22T03:56:14;100045.31;;;8.69;99.24
56604;BME280;42486;47.478;19.036;2023-04-22T03:59:18;100045.97;;;8.72;99.86
56604;BME280;42486;47.478;19.036;2023-04-22T04:02:26;100049.59;;;8.70;100.00
56604;BME280;42486;47.478;19.036;2023-04-22T04:05:28;100045.97;;;8.72;100.00
56604;BME280;42486;47.478;19.036;2023-04-22T04:08:32;100049.03;;;8.77;100.00
56604;BME280;42486;47.478;19.036;2023-04-22T04:11:35;100050.59;;;8.80;100.00
56604;BME280;42486;47.478;19.036;2023-04-22T04:14:40;100049.91;;;8.78;98.11
56604;BME280;42486;47.478;19.036;2023-04-22T04:17:43;100056.59;;;8.93;98.08
56604;BME280;42486;47.478;19.036;2023-04-22T04:20:46;100055.44;;;8.97;96.94
56604;BME280;42486;47.478;19.036;2023-04-22T04:23:49;100060.22;;;9.03;96.82
56604;BME280;42486;47.478;19.036;2023-04-22T04:26:53;100067.81;;;9.07;96.88
56604;BME280;42486;47.478;19.036;2023-04-22T04:29:56;100068.66;;;9.07;96.55
56604;BME280;42486;47.478;19.036;2023-04-22T04:32:59;100072.69;;;9.11;96.00
56604;BME280;42486;47.478;19.036;2023-04-22T04:36:08;100070.91;;;9.12;96.46
56604;BME280;42486;47.478;19.036;2023-04-22T04:39:11;100069.22;;;9.23;96.61
56604;BME280;42486;47.478;19.036;2023-04-22T04:42:15;100073.97;;;9.30;97.80
56604;BME280;42486;47.478;19.036;2023-04-22T04:45:18;100084.63;;;9.62;97.08
56604;BME280;42486;47.478;19.036;2023-04-22T04:48:21;100084.59;;;9.86;94.95
56604;BME280;42486;47.478;19.036;2023-04-22T04:51:26;100083.69;;;9.98;94.58
56604;BME280;42486;47.478;19.036;2023-04-22T04:54:32;100087.50;;;10.05;93.33
56604;BME280;42486;47.478;19.036;2023-04-22T04:57:34;100087.38;;;10.07;92.64
56604;BME280;42486;47.478;19.036;2023-04-22T05:00:39;100091.03;;;10.15;94.36
56604;BME280;42486;47.478;19.036;2023-04-22T05:03:42;100088.69;;;10.24;94.41
56604;BME280;42486;47.478;19.036;2023-04-22T05:06:45;100094.69;;;10.48;92.47
56604;BME280;42486;47.478;19.036;2023-04-22T05:09:48;100089.09;;;11.19;87.86
56604;BME280;42486;47.478;19.036;2023-04-22T05:12:51;100102.16;;;12.87;72.20
56604;BME280;42486;47.478;19.036;2023-04-22T05:15:54;100095.38;;;13.83;69.26
56604;BME280;42486;47.478;19.036;2023-04-22T05:18:57;100099.09;;;15.02;59.78
56604;BME280;42486;47.478;19.036;2023-04-22T05:22:00;100102.50;;;15.30;60.45
56604;BME280;42486;47.478;19.036;2023-04-22T05:25:03;100105.53;;;14.05;64.23
56604;BME280;42486;47.478;19.036;2023-04-22T05:28:06;100099.31;;;13.09;68.96
56604;BME280;42486;47.478;19.036;2023-04-22T05:31:09;100101.31;;;13.36;70.52
56604;BME280;42486;47.478;19.036;2023-04-22T05:34:11;100106.50;;;14.89;63.34
56604;BME280;42486;47.478;19.036;2023-04-22T05:37:14;100108.56;;;14.95;54.30
56604;BME280;42486;47.478;19.036;2023-04-22T05:40:17;100108.56;;;14.20;56.88
56604;BME280;42486;47.478;19.036;2023-04-22T05:43:20;100110.97;;;13.55;60.45
56604;BME280;42486;47.478;19.036;2023-04-22T05:46:22;100112.19;;;13.32;61.64
56604;BME280;42486;47.478;19.036;2023-04-22T05:49:25;100111.69;;;12.97;63.20
56604;BME280;42486;47.478;19.036;2023-04-22T05:52:27;100117.53;;;12.70;67.60
56604;BME280;42486;47.478;19.036;2023-04-22T05:55:30;100118.13;;;12.43;70.78
56604;BME280;42486;47.478;19.036;2023-04-22T05:58:33;100118.16;;;12.22;72.37
56604;BME280;42486;47.478;19.036;2023-04-22T06:01:36;100113.94;;;12.10;73.44
56604;BME280;42486;47.478;19.036;2023-04-22T06:04:39;100120.66;;;12.03;74.86
56604;BME280;42486;47.478;19.036;2023-04-22T06:07:42;100116.62;;;11.99;72.98
56604;BME280;42486;47.478;19.036;2023-04-22T06:10:46;100120.16;;;12.09;74.97
56604;BME280;42486;47.478;19.036;2023-04-22T06:13:48;100129.97;;;12.17;74.50
56604;BME280;42486;47.478;19.036;2023-04-22T06:16:52;100135.28;;;12.26;75.02
56604;BME280;42486;47.478;19.036;2023-04-22T06:19:55;100126.47;;;13.08;72.55
56604;BME280;42486;47.478;19.036;2023-04-22T06:22:57;100136.38;;;15.43;62.78
56604;BME280;42486;47.478;19.036;2023-04-22T06:26:00;100150.16;;;16.95;55.52
56604;BME280;42486;47.478;19.036;2023-04-22T06:29:03;100142.56;;;17.67;51.90
56604;BME280;42486;47.478;19.036;2023-04-22T06:32:07;100150.47;;;17.67;49.18
56604;BME280;42486;47.478;19.036;2023-04-22T06:35:09;100151.03;;;18.03;45.94
56604;BME280;42486;47.478;19.036;2023-04-22T06:38:12;100149.25;;;18.60;45.95
56604;BME280;42486;47.478;19.036;2023-04-22T06:41:15;100153.75;;;18.43;46.66
56604;BME280;42486;47.478;19.036;2023-04-22T06:44:18;100143.75;;;17.81;46.22
56604;BME280;42486;47.478;19.036;2023-04-22T06:47:20;100144.94;;;18.59;48.12
56604;BME280;42486;47.478;19.036;2023-04-22T06:50:23;100142.16;;;18.60;39.63
56604;BME280;42486;47.478;19.036;2023-04-22T06:53:26;100146.31;;;18.55;42.71
56604;BME280;42486;47.478;19.036;2023-04-22T06:56:28;100138.97;;;18.81;39.98
56604;BME280;42486;47.478;19.036;2023-04-22T06:59:31;100142.00;;;18.62;38.54
56604;BME280;42486;47.478;19.036;2023-04-22T07:02:34;100150.41;;;19.44;36.92
56604;BME280;42486;47.478;19.036;2023-04-22T07:05:36;100148.44;;;21.84;31.97
56604;BME280;42486;47.478;19.036;2023-04-22T07:08:40;100156.97;;;24.46;25.99
56604;BME280;42486;47.478;19.036;2023-04-22T07:11:43;100161.44;;;26.37;26.12
56604;BME280;42486;47.478;19.036;2023-04-22T07:14:47;100165.63;;;28.21;23.03
56604;BME280;42486;47.478;19.036;2023-04-22T07:17:51;100179.72;;;29.73;21.31
56604;BME280;42486;47.478;19.036;2023-04-22T07:20:54;100186.25;;;30.84;17.06
56604;BME280;42486;47.478;19.036;2023-04-22T07:23:56;100184.62;;;30.10;18.44
56604;BME280;42486;47.478;19.036;2023-04-22T07:26:59;100183.16;;;29.11;18.44
56604;BME280;42486;47.478;19.036;2023-04-22T07:30:04;100185.00;;;29.23;18.89
56604;BME280;42486;47.478;19.036;2023-04-22T07:33:07;100186.69;;;29.69;17.40
56604;BME280;42486;47.478;19.036;2023-04-22T07:36:10;100185.78;;;29.35;19.29
56604;BME280;42486;47.478;19.036;2023-04-22T07:39:12;100191.22;;;29.23;19.47
56604;BME280;42486;47.478;19.036;2023-04-22T07:42:15;100181.47;;;27.45;21.05
56604;BME280;42486;47.478;19.036;2023-04-22T07:45:18;100184.97;;;28.82;20.37
56604;BME280;42486;47.478;19.036;2023-04-22T07:48:20;100176.78;;;28.89;21.78
56604;BME280;42486;47.478;19.036;2023-04-22T07:51:23;100187.44;;;29.98;20.98
56604;BME280;42486;47.478;19.036;2023-04-22T07:54:27;100183.53;;;31.06;18.48
56604;BME280;42486;47.478;19.036;2023-04-22T07:57:30;100190.44;;;31.19;18.42
56604;BME280;42486;47.478;19.036;2023-04-22T08:00:33;100192.22;;;31.08;19.07
56604;BME280;42486;47.478;19.036;2023-04-22T08:03:36;100183.47;;;27.92;19.84
56604;BME280;42486;47.478;19.036;2023-04-22T08:06:40;100179.41;;;27.71;20.07
56604;BME280;42486;47.478;19.036;2023-04-22T08:09:44;100172.75;;;25.26;25.14
56604;BME280;42486;47.478;19.036;2023-04-22T08:12:47;100160.69;;;23.79;25.95
56604;BME280;42486;47.478;19.036;2023-04-22T08:15:50;100157.56;;;22.24;29.44
56604;BME280;42486;47.478;19.036;2023-04-22T08:18:53;100155.44;;;21.70;30.25
56604;BME280;42486;47.478;19.036;2023-04-22T08:21:57;100162.47;;;21.56;31.10
56604;BME280;42486;47.478;19.036;2023-04-22T08:25:01;100162.81;;;21.46;31.03
56604;BME280;42486;47.478;19.036;2023-04-22T08:28:04;100163.47;;;21.19;29.82
56604;BME280;42486;47.478;19.036;2023-04-22T08:31:07;100157.75;;;20.71;29.46
56604;BME280;42486;47.478;19.036;2023-04-22T08:34:12;100158.53;;;19.89;30.59
56604;BME280;42486;47.478;19.036;2023-04-22T08:37:16;100155.13;;;20.03;32.93
56604;BME280;42486;47.478;19.036;2023-04-22T08:40:19;100169.44;;;20.46;31.22
56604;BME280;42486;47.478;19.036;2023-04-22T08:43:26;100163.84;;;20.41;29.19
56604;BME280;42486;47.478;19.036;2023-04-22T08:46:30;100156.72;;;20.27;27.66
56604;BME280;42486;47.478;19.036;2023-04-22T08:49:34;100158.63;;;20.33;29.31
56604;BME280;42486;47.478;19.036;2023-04-22T08:52:41;100160.69;;;20.76;29.37
56604;BME280;42486;47.478;19.036;2023-04-22T08:55:44;100156.84;;;20.78;28.38
56604;BME280;42486;47.478;19.036;2023-04-22T08:58:48;100154.81;;;20.51;29.13
56604;BME280;42486;47.478;19.036;2023-04-22T09:01:52;100149.06;;;20.62;31.65
56604;BME280;42486;47.478;19.036;2023-04-22T09:04:57;100144.59;;;20.77;31.06
56604;BME280;42486;47.478;19.036;2023-04-22T09:08:02;100154.34;;;21.06;29.03
56604;BME280;42486;47.478;19.036;2023-04-22T09:11:06;100146.50;;;20.83;29.95
56604;BME280;42486;47.478;19.036;2023-04-22T09:14:08;100156.19;;;20.76;28.61
56604;BME280;42486;47.478;19.036;2023-04-22T09:17:15;100153.03;;;20.28;28.87
56604;BME280;42486;47.478;19.036;2023-04-22T09:20:24;100149.97;;;20.01;30.10
56604;BME280;42486;47.478;19.036;2023-04-22T09:23:27;100150.31;;;20.51;30.02
56604;BME280;42486;47.478;19.036;2023-04-22T09:26:30;100148.56;;;21.03;32.55
56604;BME280;42486;47.478;19.036;2023-04-22T09:29:32;100154.03;;;21.16;30.98
56604;BME280;42486;47.478;19.036;2023-04-22T09:32:36;100150.50;;;21.09;30.45
56604;BME280;42486;47.478;19.036;2023-04-22T09:35:42;100152.84;;;21.19;31.08
56604;BME280;42486;47.478;19.036;2023-04-22T09:38:51;100144.38;;;21.30;30.49
56604;BME280;42486;47.478;19.036;2023-04-22T09:41:55;100140.56;;;21.18;29.26
56604;BME280;42486;47.478;19.036;2023-04-22T09:44:58;100144.50;;;20.85;31.96
56604;BME280;42486;47.478;19.036;2023-04-22T09:48:07;100141.13;;;21.13;31.69
56604;BME280;42486;47.478;19.036;2023-04-22T09:51:14;100138.34;;;21.21;29.39
56604;BME280;42486;47.478;19.036;2023-04-22T09:54:18;100127.03;;;21.49;30.72
56604;BME280;42486;47.478;19.036;2023-04-22T09:57:22;100127.06;;;21.34;31.67
56604;BME280;42486;47.478;19.036;2023-04-22T10:00:29;100118.19;;;21.27;28.97
56604;BME280;42486;47.478;19.036;2023-04-22T10:03:32;100117.25;;;21.34;29.01
56604;BME280;42486;47.478;19.036;2023-04-22T10:06:36;100112.22;;;21.25;30.93
56604;BME280;42486;47.478;19.036;2023-04-22T10:09:39;100110.50;;;21.53;29.54
56604;BME280;42486;47.478;19.036;2023-04-22T10:12:44;100107.25;;;21.80;29.89
56604;BME280;42486;47.478;19.036;2023-04-22T10:15:50;100108.72;;;22.10;28.41
56604;BME280;42486;47.478;19.036;2023-04-22T10:18:54;100106.69;;;21.84;27.95
56604;BME280;42486;47.478;19.036;2023-04-22T10:25:03;100097.16;;;21.47;28.79
56604;BME280;42486;47.478;19.036;2023-04-22T10:28:08;100093.72;;;21.53;28.84
56604;BME280;42486;47.478;19.036;2023-04-22T10:31:21;100096.78;;;21.78;28.71
56604;BME280;42486;47.478;19.036;2023-04-22T10:34:24;100087.22;;;21.55;27.42
56604;BME280;42486;47.478;19.036;2023-04-22T10:37:27;100087.97;;;20.92;29.45
56604;BME280;42486;47.478;19.036;2023-04-22T10:40:32;100085.06;;;21.08;29.36
56604;BME280;42486;47.478;19.036;2023-04-22T10:56:34;100090.28;;;22.37;26.34
56604;BME280;42486;47.478;19.036;2023-04-22T10:59:53;100077.41;;;22.40;26.27
56604;BME280;42486;47.478;19.036;2023-04-22T11:06:15;100083.22;;;22.57;27.86
56604;BME280;42486;47.478;19.036;2023-04-22T11:09:19;100081.75;;;22.96;24.34
56604;BME280;42486;47.478;19.036;2023-04-22T11:15:41;100072.25;;;22.39;26.09
56604;BME280;42486;47.478;19.036;2023-04-22T11:18:45;100076.84;;;22.52;25.78
56604;BME280;42486;47.478;19.036;2023-04-22T11:21:49;100076.50;;;22.27;25.57
56604;BME280;42486;47.478;19.036;2023-04-22T11:24:56;100072.59;;;22.23;29.33
56604;BME280;42486;47.478;19.036;2023-04-22T11:28:00;100072.72;;;22.14;26.69
56604;BME280;42486;47.478;19.036;2023-04-22T11:31:04;100073.09;;;22.11;27.89
56604;BME280;42486;47.478;19.036;2023-04-22T11:34:08;100075.00;;;21.61;26.82
56604;BME280;42486;47.478;19.036;2023-04-22T11:37:10;100069.16;;;21.29;26.44
56604;BME280;42486;47.478;19.036;2023-04-22T11:40:15;100069.22;;;21.15;27.30
56604;BME280;42486;47.478;19.036;2023-04-22T11:43:32;100074.41;;;21.01;27.46
56604;BME280;42486;47.478;19.036;2023-04-22T11:46:35;100065.97;;;20.98;27.36
56604;BME280;42486;47.478;19.036;2023-04-22T11:50:04;100067.63;;;20.99;28.32
56604;BME280;42486;47.478;19.036;2023-04-22T11:53:14;100068.75;;;21.11;27.35
56604;BME280;42486;47.478;19.036;2023-04-22T11:56:19;100067.81;;;21.19;27.68
56604;BME280;42486;47.478;19.036;2023-04-22T11:59:25;100060.75;;;21.26;27.40
56604;BME280;42486;47.478;19.036;2023-04-22T12:02:29;100065.44;;;21.45;28.72
56604;BME280;42486;47.478;19.036;2023-04-22T12:05:34;100055.69;;;21.81;27.89
56604;BME280;42486;47.478;19.036;2023-04-22T12:08:38;100062.75;;;22.23;28.70
56604;BME280;42486;47.478;19.036;2023-04-22T12:11:45;100062.72;;;23.13;29.32
56604;BME280;42486;47.478;19.036;2023-04-22T12:14:49;100059.06;;;23.67;28.22
56604;BME280;42486;47.478;19.036;2023-04-22T12:17:55;100060.72;;;23.94;27.54
56604;BME280;42486;47.478;19.036;2023-04-22T12:21:07;100057.34;;;24.39;25.98
56604;BME280;42486;47.478;19.036;2023-04-22T12:24:10;100056.28;;;24.53;26.81
56604;BME280;42486;47.478;19.036;2023-04-22T12:27:13;100045.75;;;23.47;24.32
56604;BME280;42486;47.478;19.036;2023-04-22T12:30:17;100043.06;;;23.27;26.96
56604;BME280;42486;47.478;19.036;2023-04-22T12:33:19;100049.12;;;22.94;26.82
56604;BME280;42486;47.478;19.036;2023-04-22T12:36:23;100043.72;;;22.68;25.68
56604;BME280;42486;47.478;19.036;2023-04-22T12:39:26;100042.91;;;22.74;27.02
56604;BME280;42486;47.478;19.036;2023-04-22T12:42:29;100043.09;;;22.65;28.06
56604;BME280;42486;47.478;19.036;2023-04-22T12:45:32;100044.28;;;22.56;28.02
56604;BME280;42486;47.478;19.036;2023-04-22T12:48:35;100036.03;;;22.38;28.94
56604;BME280;42486;47.478;19.036;2023-04-22T12:51:39;100035.16;;;22.31;28.04
56604;BME280;42486;47.478;19.036;2023-04-22T12:54:41;100030.13;;;22.14;27.57
56604;BME280;42486;47.478;19.036;2023-04-22T12:57:44;100021.38;;;21.58;28.53
56604;BME280;42486;47.478;19.036;2023-04-22T13:00:48;100025.81;;;21.29;28.61
56604;BME280;42486;47.478;19.036;2023-04-22T13:03:50;100018.47;;;21.31;29.09
56604;BME280;42486;47.478;19.036;2023-04-22T13:06:55;100016.94;;;21.22;30.14
56604;BME280;42486;47.478;19.036;2023-04-22T13:09:57;100010.94;;;20.92;28.83
56604;BME280;42486;47.478;19.036;2023-04-22T13:13:00;100008.72;;;21.17;30.95
56604;BME280;42486;47.478;19.036;2023-04-22T13:16:17;100008.47;;;21.33;29.96
56604;BME280;42486;47.478;19.036;2023-04-22T13:19:19;100016.25;;;21.84;30.10
56604;BME280;42486;47.478;19.036;2023-04-22T13:22:23;100009.41;;;22.03;28.27
56604;BME280;42486;47.478;19.036;2023-04-22T13:25:25;100001.50;;;21.82;27.77
56604;BME280;42486;47.478;19.036;2023-04-22T13:28:28;100010.97;;;21.91;28.66
56604;BME280;42486;47.478;19.036;2023-04-22T13:31:31;100008.22;;;22.12;30.04
56604;BME280;42486;47.478;19.036;2023-04-22T13:34:34;100001.53;;;21.88;27.75
56604;BME280;42486;47.478;19.036;2023-04-22T13:37:37;100007.09;;;21.93;29.19
56604;BME280;42486;47.478;19.036;2023-04-22T13:40:40;100000.63;;;22.09;30.13
56604;BME280;42486;47.478;19.036;2023-04-22T13:43:43;99994.41;;;21.89;29.79
56604;BME280;42486;47.478;19.036;2023-04-22T13:46:46;99999.41;;;21.77;30.20
56604;BME280;42486;47.478;19.036;2023-04-22T13:49:49;100003.09;;;21.48;29.32
56604;BME280;42486;47.478;19.036;2023-04-22T13:52:56;99994.81;;;21.36;29.01
56604;BME280;42486;47.478;19.036;2023-04-22T13:55:58;99988.84;;;21.34;29.98
56604;BME280;42486;47.478;19.036;2023-04-22T13:59:01;99984.09;;;21.29;30.98
56604;BME280;42486;47.478;19.036;2023-04-22T14:02:03;99990.97;;;21.17;31.51
56604;BME280;42486;47.478;19.036;2023-04-22T14:05:07;99983.94;;;21.09;29.41
56604;BME280;42486;47.478;19.036;2023-04-22T14:08:11;99986.84;;;21.15;31.24
56604;BME280;42486;47.478;19.036;2023-04-22T14:11:14;99987.28;;;21.18;29.83
56604;BME280;42486;47.478;19.036;2023-04-22T14:14:17;99982.03;;;21.03;29.58
56604;BME280;42486;47.478;19.036;2023-04-22T14:17:19;99987.47;;;20.95;29.80
56604;BME280;42486;47.478;19.036;2023-04-22T14:20:23;99978.37;;;21.04;30.02
56604;BME280;42486;47.478;19.036;2023-04-22T14:23:26;99986.75;;;21.01;28.94
56604;BME280;42486;47.478;19.036;2023-04-22T14:26:29;99988.31;;;20.96;29.42
56604;BME280;42486;47.478;19.036;2023-04-22T14:29:34;99983.50;;;21.06;30.46
56604;BME280;42486;47.478;19.036;2023-04-22T14:32:37;99983.31;;;21.07;31.01
56604;BME280;42486;47.478;19.036;2023-04-22T14:35:40;99986.22;;;21.12;31.43
56604;BME280;42486;47.478;19.036;2023-04-22T14:38:45;99978.00;;;21.07;29.84
56604;BME280;42486;47.478;19.036;2023-04-22T14:41:48;99977.34;;;21.05;30.03
56604;BME280;42486;47.478;19.036;2023-04-22T14:44:51;99974.56;;;20.92;30.54
56604;BME280;42486;47.478;19.036;2023-04-22T14:47:54;99972.94;;;20.70;30.63
56604;BME280;42486;47.478;19.036;2023-04-22T14:50:57;99971.28;;;20.68;30.84
56604;BME280;42486;47.478;19.036;2023-04-22T14:54:02;99966.34;;;20.65;30.75
56604;BME280;42486;47.478;19.036;2023-04-22T14:57:05;99971.34;;;20.54;29.58
56604;BME280;42486;47.478;19.036;2023-04-22T15:00:09;99965.91;;;20.47;31.14
56604;BME280;42486;47.478;19.036;2023-04-22T15:03:12;99965.34;;;20.52;30.05
56604;BME280;42486;47.478;19.036;2023-04-22T15:06:15;99968.47;;;20.55;29.90
56604;BME280;42486;47.478;19.036;2023-04-22T15:09:17;99966.28;;;20.59;30.85
56604;BME280;42486;47.478;19.036;2023-04-22T15:12:21;99962.53;;;20.53;29.07
56604;BME280;42486;47.478;19.036;2023-04-22T15:15:24;99970.94;;;20.42;29.43
56604;BME280;42486;47.478;19.036;2023-04-22T15:18:26;99974.25;;;20.44;30.51
56604;BME280;42486;47.478;19.036;2023-04-22T15:21:30;99972.63;;;20.43;30.19
56604;BME280;42486;47.478;19.036;2023-04-22T15:24:33;99972.06;;;20.33;29.87
56604;BME280;42486;47.478;19.036;2023-04-22T15:27:37;99969.03;;;20.36;28.54
56604;BME280;42486;47.478;19.036;2023-04-22T15:30:40;99968.94;;;20.59;28.68
56604;BME280;42486;47.478;19.036;2023-04-22T15:33:42;99963.19;;;20.77;30.82
56604;BME280;42486;47.478;19.036;2023-04-22T15:36:46;99963.25;;;20.47;29.58
56604;BME280;42486;47.478;19.036;2023-04-22T15:39:49;99959.50;;;20.41;31.23
56604;BME280;42486;47.478;19.036;2023-04-22T15:42:51;99964.38;;;20.38;31.47
56604;BME280;42486;47.478;19.036;2023-04-22T15:45:57;99962.75;;;20.22;30.61
56604;BME280;42486;47.478;19.036;2023-04-22T15:49:00;99968.16;;;19.99;29.95
56604;BME280;42486;47.478;19.036;2023-04-22T15:52:04;99967.81;;;19.72;30.48
56604;BME280;42486;47.478;19.036;2023-04-22T15:55:07;99967.41;;;19.61;31.47
56604;BME280;42486;47.478;19.036;2023-04-22T15:58:13;99963.75;;;19.47;33.36
56604;BME280;42486;47.478;19.036;2023-04-22T16:01:17;99963.44;;;19.42;33.58
56604;BME280;42486;47.478;19.036;2023-04-22T16:04:24;99954.66;;;19.41;34.11
56604;BME280;42486;47.478;19.036;2023-04-22T16:07:28;99957.59;;;19.31;33.65
56604;BME280;42486;47.478;19.036;2023-04-22T16:10:32;99963.94;;;19.22;33.50
56604;BME280;42486;47.478;19.036;2023-04-22T16:13:37;99953.78;;;19.11;33.84
56604;BME280;42486;47.478;19.036;2023-04-22T16:16:41;99957.00;;;18.98;34.72